createdAt,value
2022-12-23T00:00:42.071Z,82.75
2022-12-23T00:01:44.046Z,83.91
2022-12-23T00:02:46.096Z,83.88
2022-12-23T00:03:47.843Z,83.48
2022-12-23T00:04:49.349Z,83.90
2022-12-23T00:05:51.425Z,84.15
2022-12-23T00:06:53.170Z,83.59
2022-12-23T00:07:54.578Z,84.28
2022-12-23T00:08:58.385Z,84.02
2022-12-23T00:10:00.496Z,83.70
2022-12-23T00:11:04.464Z,83.64
2022-12-23T00:12:24.847Z,83.61
2022-12-23T00:13:44.697Z,82.87
2022-12-23T00:15:04.477Z,83.01
2022-12-23T00:16:07.832Z,82.98
2022-12-23T00:17:22.209Z,83.43
2022-12-23T00:18:24.371Z,83.44
2022-12-23T00:19:25.919Z,83.95
2022-12-23T00:20:27.400Z,83.80
2022-12-23T00:21:28.862Z,83.76
2022-12-23T00:22:49.111Z,84.17
2022-12-23T00:23:51.560Z,84.17
2022-12-23T00:24:52.994Z,83.81
2022-12-23T00:25:54.538Z,84.03
2022-12-23T00:26:56.290Z,84.75
2022-12-23T00:28:03.455Z,84.77
2022-12-23T00:29:04.907Z,84.54
2022-12-23T00:30:09.357Z,84.66
2022-12-23T00:31:12.729Z,84.82
2022-12-23T00:32:14.652Z,84.33
2022-12-23T00:33:19.134Z,83.77
2022-12-23T00:34:20.567Z,83.67
2022-12-23T00:35:21.988Z,83.67
2022-12-23T00:36:30.536Z,83.18
2022-12-23T00:37:32.112Z,82.88
2022-12-23T00:38:52.351Z,83.86
2022-12-23T00:40:12.225Z,83.47
2022-12-23T00:41:35.457Z,83.96
2022-12-23T00:42:54.939Z,83.44
2022-12-23T00:43:56.631Z,83.33
2022-12-23T00:45:15.559Z,83.28
2022-12-23T00:46:17.461Z,82.93
2022-12-23T00:47:37.570Z,82.84
2022-12-23T00:48:57.446Z,82.63
2022-12-23T00:49:58.919Z,82.56
2022-12-23T00:51:00.354Z,82.94
2022-12-23T00:52:02.994Z,82.57
2022-12-23T00:53:05.807Z,82.73
2022-12-23T00:54:07.542Z,82.61
2022-12-23T00:55:09.147Z,82.46
2022-12-23T00:56:10.591Z,82.47
2022-12-23T00:57:12.376Z,82.45
2022-12-23T00:58:15.838Z,82.67
2022-12-23T00:59:17.285Z,83.11
2022-12-23T01:00:19.352Z,82.71
2022-12-23T01:01:39.383Z,82.91
2022-12-23T01:02:59.854Z,82.84
2022-12-23T01:04:21.158Z,82.35
2022-12-23T01:05:38.052Z,82.59
2022-12-23T01:06:39.460Z,82.74
2022-12-23T01:07:42.721Z,82.95
2022-12-23T01:08:44.221Z,82.90
2022-12-23T01:09:45.844Z,83.23
2022-12-23T01:10:47.258Z,82.95
2022-12-23T01:11:48.718Z,82.96
2022-12-23T01:12:50.504Z,82.91
2022-12-23T01:13:51.927Z,82.43
2022-12-23T01:14:56.217Z,83.14
2022-12-23T01:16:05.583Z,83.28
2022-12-23T01:17:11.240Z,84.75
2022-12-23T01:18:12.935Z,84.90
2022-12-23T01:19:17.529Z,84.66
2022-12-23T01:20:19.212Z,84.20
2022-12-23T01:21:21.119Z,84.36
2022-12-23T01:22:22.707Z,84.16
2022-12-23T01:23:24.521Z,83.89
2022-12-23T01:24:31.396Z,83.60
2022-12-23T01:25:33.660Z,83.26
2022-12-23T01:26:35.520Z,83.27
2022-12-23T01:27:37.665Z,83.17
2022-12-23T01:28:39.088Z,82.92
2022-12-23T01:29:45.646Z,83.10
2022-12-23T01:30:47.053Z,83.46
2022-12-23T01:31:48.555Z,83.62
2022-12-23T01:32:50.707Z,83.87
2022-12-23T01:33:53.005Z,83.90
2022-12-23T01:34:54.438Z,84.07
2022-12-23T01:36:00.658Z,84.25
2022-12-23T01:37:02.124Z,84.36
2022-12-23T01:38:03.613Z,83.85
2022-12-23T01:39:05.083Z,83.88
2022-12-23T01:40:07.767Z,84.29
2022-12-23T01:41:40.598Z,85.19
2022-12-23T01:42:45.385Z,84.68
2022-12-23T01:43:49.616Z,84.67
2022-12-23T01:45:16.235Z,84.91
2022-12-23T01:46:17.969Z,84.90
2022-12-23T01:47:44.655Z,85.76
2022-12-23T01:48:51.200Z,86.05
2022-12-23T01:50:08.416Z,85.99
2022-12-23T01:51:16.981Z,86.27
2022-12-23T01:52:18.883Z,86.36
2022-12-23T01:53:31.699Z,85.55
2022-12-23T01:54:34.280Z,85.53
2022-12-23T01:55:43.166Z,85.27
2022-12-23T01:56:44.626Z,85.98
2022-12-23T01:57:47.888Z,86.41
2022-12-23T01:59:34.994Z,87.33
2022-12-23T02:00:56.387Z,86.87
2022-12-23T02:02:19.671Z,86.95
2022-12-23T02:03:39.675Z,86.87
2022-12-23T02:04:42.296Z,86.39
2022-12-23T02:05:46.365Z,86.56
2022-12-23T02:07:09.391Z,86.76
2022-12-23T02:08:31.665Z,86.60
2022-12-23T02:09:36.006Z,86.26
2022-12-23T02:11:22.279Z,86.57
2022-12-23T02:12:56.203Z,87.03
2022-12-23T02:14:41.351Z,87.69
2022-12-23T02:16:14.172Z,87.21
2022-12-23T02:17:34.418Z,86.71
2022-12-23T02:18:48.835Z,86.81
2022-12-23T02:20:13.868Z,87.23
2022-12-23T02:21:38.997Z,87.87
2022-12-23T02:22:47.124Z,88.83
2022-12-23T02:23:51.660Z,88.32
2022-12-23T02:25:12.016Z,88.03
2022-12-23T02:26:37.827Z,88.62
2022-12-23T02:27:59.677Z,89.08
2022-12-23T02:29:17.011Z,88.38
2022-12-23T02:30:24.507Z,88.13
2022-12-23T02:31:52.154Z,87.86
2022-12-23T02:33:02.620Z,87.53
2022-12-23T02:34:19.036Z,87.52
2022-12-23T02:35:42.158Z,87.28
2022-12-23T02:37:16.783Z,87.28
2022-12-23T02:38:33.773Z,87.26
2022-12-23T02:39:56.819Z,88.06
2022-12-23T02:41:25.636Z,88.20
2022-12-23T02:42:37.526Z,88.74
2022-12-23T02:44:02.369Z,88.18
2022-12-23T02:45:26.551Z,88.48
2022-12-23T02:46:37.005Z,87.83
2022-12-23T02:47:44.899Z,88.18
2022-12-23T02:48:57.152Z,87.55
2022-12-23T02:50:06.237Z,88.01
2022-12-23T02:51:09.046Z,88.09
2022-12-23T02:52:18.394Z,87.39
2022-12-23T02:53:27.927Z,87.34
2022-12-23T02:54:32.721Z,87.57
2022-12-23T02:55:36.923Z,87.78
2022-12-23T02:56:43.276Z,87.73
2022-12-23T02:57:49.278Z,88.09
2022-12-23T02:58:58.022Z,87.66
2022-12-23T03:00:01.392Z,87.43
2022-12-23T03:01:05.153Z,87.99
2022-12-23T03:02:06.824Z,87.43
2022-12-23T03:03:08.591Z,88.13
2022-12-23T03:04:10.136Z,88.26
2022-12-23T03:05:39.188Z,88.04
2022-12-23T03:06:43.627Z,87.13
2022-12-23T03:07:45.422Z,86.81
2022-12-23T03:08:48.843Z,87.18
2022-12-23T03:10:10.543Z,87.05
2022-12-23T03:11:15.189Z,86.47
2022-12-23T03:12:36.440Z,86.44
2022-12-23T03:14:05.621Z,86.86
2022-12-23T03:15:36.791Z,86.98
2022-12-23T03:16:58.709Z,87.23
2022-12-23T03:18:10.691Z,87.51
2022-12-23T03:19:31.427Z,87.15
2022-12-23T03:20:52.518Z,86.80
2022-12-23T03:22:11.834Z,87.19
2022-12-23T03:23:26.092Z,86.85
2022-12-23T03:25:01.209Z,86.50
2022-12-23T03:26:15.503Z,86.39
2022-12-23T03:27:26.478Z,86.50
2022-12-23T03:28:32.818Z,87.14
2022-12-23T03:29:43.340Z,86.81
2022-12-23T03:30:50.997Z,87.14
2022-12-23T03:31:55.129Z,87.41
2022-12-23T03:33:05.669Z,87.33
2022-12-23T03:34:13.286Z,86.65
2022-12-23T03:35:21.814Z,86.06
2022-12-23T03:36:32.153Z,86.67
2022-12-23T03:37:37.487Z,86.25
2022-12-23T03:38:42.716Z,86.23
2022-12-23T03:39:54.207Z,86.38
2022-12-23T03:41:05.458Z,86.14
2022-12-23T03:42:27.431Z,86.94
2022-12-23T03:43:35.585Z,87.04
2022-12-23T03:44:57.258Z,88.43
2022-12-23T03:46:12.546Z,88.81
2022-12-23T03:47:18.768Z,88.23
2022-12-23T03:48:46.782Z,88.15
2022-12-23T03:49:55.747Z,88.25
2022-12-23T03:51:03.350Z,88.08
2022-12-23T03:52:20.759Z,88.14
2022-12-23T03:53:45.594Z,87.58
2022-12-23T03:54:53.890Z,88.02
2022-12-23T03:56:09.604Z,87.10
2022-12-23T03:57:13.533Z,86.78
2022-12-23T03:58:38.844Z,86.32
2022-12-23T03:59:45.568Z,86.53
2022-12-23T04:00:59.847Z,87.19
2022-12-23T04:02:04.254Z,86.57
2022-12-23T04:03:10.776Z,86.77
2022-12-23T04:04:24.590Z,86.59
2022-12-23T04:05:31.786Z,86.11
2022-12-23T04:06:45.115Z,85.96
2022-12-23T04:07:48.557Z,86.58
2022-12-23T04:08:50.810Z,86.95
2022-12-23T04:09:53.580Z,86.66
2022-12-23T04:10:55.088Z,86.65
2022-12-23T04:11:57.951Z,86.20
2022-12-23T04:12:59.582Z,86.55
2022-12-23T04:14:01.622Z,86.15
2022-12-23T04:15:08.993Z,86.31
2022-12-23T04:16:14.785Z,87.00
2022-12-23T04:17:18.068Z,86.51
2022-12-23T04:18:19.847Z,86.49
2022-12-23T04:19:22.043Z,86.30
2022-12-23T04:20:24.265Z,86.25
2022-12-23T04:21:27.708Z,85.92
2022-12-23T04:22:29.497Z,85.96
2022-12-23T04:23:31.586Z,85.52
2022-12-23T04:24:33.332Z,85.81
2022-12-23T04:25:34.773Z,85.88
2022-12-23T04:26:36.276Z,86.19
2022-12-23T04:27:41.214Z,86.17
2022-12-23T04:28:43.012Z,85.94
2022-12-23T04:29:44.908Z,85.41
2022-12-23T04:30:46.341Z,86.69
2022-12-23T04:31:47.914Z,86.36
2022-12-23T04:32:56.861Z,86.01
2022-12-23T04:33:59.082Z,85.85
2022-12-23T04:35:00.639Z,85.75
2022-12-23T04:36:02.079Z,85.69
2022-12-23T04:37:03.739Z,85.67
2022-12-23T04:38:05.416Z,85.47
2022-12-23T04:39:07.168Z,85.53
2022-12-23T04:40:09.001Z,85.63
2022-12-23T04:41:10.442Z,85.56
2022-12-23T04:42:11.939Z,85.15
2022-12-23T04:43:13.536Z,85.33
2022-12-23T04:44:15.745Z,85.41
2022-12-23T04:45:19.729Z,84.77
2022-12-23T04:46:23.974Z,84.53
2022-12-23T04:47:26.093Z,85.27
2022-12-23T04:48:27.862Z,84.83
2022-12-23T04:49:30.530Z,84.97
2022-12-23T04:50:31.965Z,84.90
2022-12-23T04:51:33.581Z,85.16
2022-12-23T04:52:35.297Z,85.28
2022-12-23T04:53:37.823Z,85.54
2022-12-23T04:54:45.500Z,85.73
2022-12-23T04:55:53.476Z,85.46
2022-12-23T04:56:55.060Z,85.85
2022-12-23T04:57:56.493Z,85.23
2022-12-23T04:58:58.237Z,85.57
2022-12-23T04:59:59.763Z,85.50
2022-12-23T05:01:06.753Z,85.34
2022-12-23T05:02:11.377Z,85.86
2022-12-23T05:03:13.344Z,86.17
2022-12-23T05:04:14.947Z,86.21
2022-12-23T05:05:16.421Z,85.60
2022-12-23T05:06:17.862Z,85.77
2022-12-23T05:07:19.715Z,86.00
2022-12-23T05:08:21.508Z,85.98
2022-12-23T05:09:23.159Z,85.35
2022-12-23T05:10:24.624Z,85.75
2022-12-23T05:11:26.123Z,85.39
2022-12-23T05:12:31.693Z,85.07
2022-12-23T05:13:33.371Z,85.37
2022-12-23T05:14:34.745Z,84.77
2022-12-23T05:15:36.264Z,85.35
2022-12-23T05:16:38.075Z,85.08
2022-12-23T05:17:39.621Z,85.47
2022-12-23T05:18:41.038Z,85.54
2022-12-23T05:19:42.424Z,85.20
2022-12-23T05:20:44.885Z,85.30
2022-12-23T05:21:46.837Z,85.36
2022-12-23T05:22:49.069Z,85.32
2022-12-23T05:23:50.962Z,85.13
2022-12-23T05:24:52.453Z,85.65
2022-12-23T05:25:54.513Z,85.43
2022-12-23T05:27:00.209Z,85.55
2022-12-23T05:28:03.141Z,85.22
2022-12-23T05:29:07.743Z,85.11
2022-12-23T05:30:09.843Z,85.20
2022-12-23T05:31:12.729Z,85.40
2022-12-23T05:32:14.217Z,84.92
2022-12-23T05:33:16.101Z,84.90
2022-12-23T05:34:17.559Z,84.99
2022-12-23T05:35:18.962Z,85.16
2022-12-23T05:36:20.593Z,84.86
2022-12-23T05:37:22.029Z,84.85
2022-12-23T05:38:24.533Z,85.08
2022-12-23T05:39:25.953Z,85.04
2022-12-23T05:40:29.837Z,84.90
2022-12-23T05:41:34.044Z,85.22
2022-12-23T05:42:35.466Z,85.24
2022-12-23T05:43:37.107Z,85.20
2022-12-23T05:44:38.530Z,85.37
2022-12-23T05:45:40.025Z,85.08
2022-12-23T05:46:41.516Z,84.67
2022-12-23T05:47:43.318Z,84.94
2022-12-23T05:48:44.746Z,85.03
2022-12-23T05:49:46.149Z,84.94
2022-12-23T05:50:51.714Z,84.84
2022-12-23T05:51:53.138Z,85.07
2022-12-23T05:52:57.828Z,85.15
2022-12-23T05:53:59.319Z,85.04
2022-12-23T05:55:00.778Z,84.93
2022-12-23T05:56:06.607Z,84.98
2022-12-23T05:57:08.047Z,85.00
2022-12-23T05:58:10.035Z,85.05
2022-12-23T05:59:11.468Z,84.92
2022-12-23T06:00:13.999Z,85.04
2022-12-23T06:01:15.445Z,85.15
2022-12-23T06:02:17.043Z,85.38
2022-12-23T06:03:19.113Z,84.38
2022-12-23T06:04:20.816Z,84.53
2022-12-23T06:05:22.449Z,84.73
2022-12-23T06:06:23.870Z,84.63
2022-12-23T06:07:25.622Z,84.83
2022-12-23T06:08:27.071Z,85.12
2022-12-23T06:09:28.459Z,85.41
2022-12-23T06:10:29.888Z,84.84
2022-12-23T06:11:31.384Z,85.17
2022-12-23T06:12:33.144Z,84.72
2022-12-23T06:13:34.577Z,84.80
2022-12-23T06:14:36.024Z,84.38
2022-12-23T06:15:37.492Z,84.37
2022-12-23T06:16:39.002Z,84.45
2022-12-23T06:17:40.482Z,84.41
2022-12-23T06:18:42.506Z,84.25
2022-12-23T06:19:43.932Z,84.36
2022-12-23T06:20:47.006Z,84.55
2022-12-23T06:21:48.539Z,84.86
2022-12-23T06:22:50.719Z,84.93
2022-12-23T06:23:52.457Z,84.31
2022-12-23T06:24:53.977Z,85.08
2022-12-23T06:26:00.128Z,85.17
2022-12-23T06:27:01.690Z,85.26
2022-12-23T06:28:03.566Z,85.49
2022-12-23T06:29:14.547Z,85.80
2022-12-23T06:30:16.080Z,85.59
2022-12-23T06:31:17.609Z,85.67
2022-12-23T06:32:19.438Z,85.42
2022-12-23T06:33:21.329Z,85.31
2022-12-23T06:34:22.830Z,85.30
2022-12-23T06:35:24.277Z,85.14
2022-12-23T06:36:25.724Z,85.01
2022-12-23T06:37:27.450Z,84.73
2022-12-23T06:38:28.901Z,84.98
2022-12-23T06:39:30.427Z,84.60
2022-12-23T06:40:31.910Z,84.67
2022-12-23T06:41:33.346Z,84.66
2022-12-23T06:42:35.159Z,84.27
2022-12-23T06:43:36.596Z,84.14
2022-12-23T06:44:38.062Z,84.27
2022-12-23T06:45:39.989Z,84.16
2022-12-23T06:46:41.485Z,84.15
2022-12-23T06:47:42.978Z,84.26
2022-12-23T06:48:44.415Z,84.20
2022-12-23T06:49:46.187Z,84.32
2022-12-23T06:50:47.635Z,84.29
2022-12-23T06:51:49.446Z,84.13
2022-12-23T06:52:50.903Z,84.21
2022-12-23T06:53:52.328Z,83.93
2022-12-23T06:54:53.775Z,83.85
2022-12-23T06:56:02.595Z,84.15
2022-12-23T06:57:04.430Z,84.03
2022-12-23T06:58:06.124Z,84.81
2022-12-23T06:59:07.631Z,85.00
2022-12-23T07:00:09.635Z,84.60
2022-12-23T07:01:11.269Z,84.45
2022-12-23T07:02:13.345Z,84.18
2022-12-23T07:03:15.224Z,83.88
2022-12-23T07:04:16.917Z,84.26
2022-12-23T07:05:18.429Z,84.20
2022-12-23T07:06:19.916Z,84.10
2022-12-23T07:07:21.817Z,84.83
2022-12-23T07:08:23.319Z,84.56
2022-12-23T07:09:24.817Z,84.31
2022-12-23T07:10:26.236Z,84.01
2022-12-23T07:11:28.087Z,84.00
2022-12-23T07:12:29.568Z,84.02
2022-12-23T07:13:32.184Z,83.79
2022-12-23T07:14:33.657Z,83.92
2022-12-23T07:15:36.470Z,83.58
2022-12-23T07:16:38.303Z,83.95
2022-12-23T07:17:39.795Z,83.62
2022-12-23T07:18:41.299Z,83.38
2022-12-23T07:19:42.829Z,83.41
2022-12-23T07:20:44.271Z,83.40
2022-12-23T07:21:46.087Z,83.12
2022-12-23T07:22:47.551Z,83.29
2022-12-23T07:23:49.003Z,83.35
2022-12-23T07:24:50.749Z,83.29
2022-12-23T07:25:52.217Z,83.26
2022-12-23T07:26:56.132Z,83.24
2022-12-23T07:27:57.546Z,82.92
2022-12-23T07:28:59.001Z,83.05
2022-12-23T07:30:00.435Z,83.29
2022-12-23T07:31:04.897Z,83.54
2022-12-23T07:32:06.869Z,83.19
2022-12-23T07:33:08.430Z,83.32
2022-12-23T07:34:09.934Z,83.44
2022-12-23T07:35:11.402Z,83.32
2022-12-23T07:36:13.479Z,83.22
2022-12-23T07:37:14.986Z,82.95
2022-12-23T07:38:16.424Z,83.01
2022-12-23T07:39:17.851Z,82.99
2022-12-23T07:40:19.301Z,83.16
2022-12-23T07:41:21.233Z,83.04
2022-12-23T07:42:43.977Z,82.71
2022-12-23T07:43:44.131Z,82.97
2022-12-23T07:44:45.674Z,82.74
2022-12-23T07:45:47.225Z,82.83
2022-12-23T07:46:49.022Z,83.14
2022-12-23T07:47:54.812Z,83.07
2022-12-23T07:48:56.241Z,83.18
2022-12-23T07:49:57.733Z,83.58
2022-12-23T07:51:03.258Z,83.45
2022-12-23T07:52:05.060Z,83.45
2022-12-23T07:53:06.518Z,83.59
2022-12-23T07:54:07.936Z,83.50
2022-12-23T07:55:09.607Z,83.66
2022-12-23T07:56:11.424Z,83.72
2022-12-23T07:57:12.847Z,83.50
2022-12-23T07:58:14.272Z,83.65
2022-12-23T07:59:15.861Z,84.03
2022-12-23T08:00:18.214Z,83.59
2022-12-23T08:01:21.249Z,83.22
2022-12-23T08:02:25.108Z,83.74
2022-12-23T08:03:27.037Z,83.80
2022-12-23T08:04:28.572Z,83.83
2022-12-23T08:05:30.111Z,83.62
2022-12-23T08:06:35.535Z,83.14
2022-12-23T08:07:37.127Z,83.13
2022-12-23T08:08:39.504Z,82.95
2022-12-23T08:09:40.971Z,82.94
2022-12-23T08:10:48.118Z,82.82
2022-12-23T08:11:50.231Z,82.56
2022-12-23T08:12:51.673Z,82.52
2022-12-23T08:13:53.109Z,82.56
2022-12-23T08:14:54.548Z,82.68
2022-12-23T08:15:58.012Z,82.74
2022-12-23T08:16:59.513Z,82.25
2022-12-23T08:18:01.354Z,82.14
2022-12-23T08:19:02.782Z,82.15
2022-12-23T08:20:04.446Z,82.04
2022-12-23T08:21:18.308Z,82.06
2022-12-23T08:22:19.760Z,82.28
2022-12-23T08:23:24.882Z,82.69
2022-12-23T08:24:26.592Z,82.86
2022-12-23T08:25:28.069Z,82.91
2022-12-23T08:26:29.822Z,82.00
2022-12-23T08:27:31.266Z,82.21
2022-12-23T08:28:33.827Z,82.06
2022-12-23T08:29:36.641Z,82.22
2022-12-23T08:30:38.280Z,82.21
2022-12-23T08:31:40.155Z,81.69
2022-12-23T08:32:41.570Z,81.84
2022-12-23T08:33:45.627Z,81.87
2022-12-23T08:34:47.066Z,81.88
2022-12-23T08:35:48.518Z,81.47
2022-12-23T08:36:50.055Z,81.62
2022-12-23T08:38:00.354Z,81.64
2022-12-23T08:39:06.178Z,81.60
2022-12-23T08:40:08.354Z,81.43
2022-12-23T08:41:12.229Z,81.53
2022-12-23T08:42:13.880Z,81.64
2022-12-23T08:43:15.388Z,81.51
2022-12-23T08:44:17.314Z,81.25
2022-12-23T08:45:18.782Z,81.57
2022-12-23T08:46:21.379Z,80.96
2022-12-23T08:47:22.843Z,81.01
2022-12-23T08:48:24.241Z,81.15
2022-12-23T08:49:25.663Z,81.06
2022-12-23T08:50:27.056Z,81.00
2022-12-23T08:51:29.115Z,81.01
2022-12-23T08:52:30.531Z,80.82
2022-12-23T08:53:32.669Z,80.88
2022-12-23T08:54:34.230Z,80.76
2022-12-23T08:55:43.887Z,80.39
2022-12-23T08:56:45.694Z,80.47
2022-12-23T08:57:47.156Z,80.13
2022-12-23T08:58:51.073Z,80.10
2022-12-23T08:59:52.602Z,80.06
2022-12-23T09:00:54.351Z,80.58
2022-12-23T09:01:56.771Z,80.47
2022-12-23T09:02:58.520Z,80.76
2022-12-23T09:04:07.033Z,80.29
2022-12-23T09:05:08.755Z,80.55
2022-12-23T09:06:28.534Z,80.71
2022-12-23T09:07:30.363Z,80.52
2022-12-23T09:08:31.901Z,80.49
2022-12-23T09:09:33.388Z,81.07
2022-12-23T09:10:41.215Z,81.02
2022-12-23T09:11:43.268Z,80.83
2022-12-23T09:12:44.839Z,80.59
2022-12-23T09:13:47.173Z,80.60
2022-12-23T09:14:48.646Z,81.23
2022-12-23T09:15:50.466Z,81.47
2022-12-23T09:16:52.522Z,81.39
2022-12-23T09:17:54.048Z,81.51
2022-12-23T09:18:56.456Z,81.54
2022-12-23T09:19:57.909Z,81.38
2022-12-23T09:21:01.977Z,81.70
2022-12-23T09:22:03.384Z,81.73
2022-12-23T09:23:05.647Z,81.54
2022-12-23T09:24:07.106Z,81.24
2022-12-23T09:25:08.868Z,81.39
2022-12-23T09:26:11.763Z,81.24
2022-12-23T09:27:13.090Z,81.58
2022-12-23T09:28:14.503Z,81.67
2022-12-23T09:29:15.937Z,81.97
2022-12-23T09:30:17.447Z,82.05
2022-12-23T09:31:20.268Z,82.00
2022-12-23T09:32:21.761Z,81.81
2022-12-23T09:33:23.177Z,82.07
2022-12-23T09:34:24.678Z,82.03
2022-12-23T09:35:26.152Z,82.21
2022-12-23T09:36:27.730Z,82.11
2022-12-23T09:37:29.304Z,81.82
2022-12-23T09:38:31.262Z,81.84
2022-12-23T09:39:32.740Z,81.72
2022-12-23T09:40:37.447Z,81.99
2022-12-23T09:41:53.119Z,82.00
2022-12-23T09:43:32.354Z,82.43
2022-12-23T09:45:08.031Z,82.19
2022-12-23T09:46:22.607Z,82.45
2022-12-23T09:47:27.332Z,82.21
2022-12-23T09:48:34.326Z,82.36
2022-12-23T09:49:46.170Z,82.20
2022-12-23T09:50:48.814Z,82.42
2022-12-23T09:51:54.099Z,82.80
2022-12-23T09:53:03.956Z,82.69
2022-12-23T09:54:17.080Z,82.73
2022-12-23T09:55:20.415Z,82.32
2022-12-23T09:56:34.567Z,82.52
2022-12-23T09:57:46.240Z,82.40
2022-12-23T09:59:15.093Z,82.45
2022-12-23T10:00:21.513Z,82.26
2022-12-23T10:01:33.047Z,82.38
2022-12-23T10:02:51.434Z,82.70
2022-12-23T10:04:21.376Z,82.74
2022-12-23T10:05:44.725Z,82.08
2022-12-23T10:07:02.502Z,82.48
2022-12-23T10:08:14.336Z,82.68
2022-12-23T10:09:17.469Z,82.59
2022-12-23T10:10:37.527Z,83.05
2022-12-23T10:11:43.844Z,83.22
2022-12-23T10:12:49.554Z,83.25
2022-12-23T10:14:02.870Z,83.25
2022-12-23T10:15:16.774Z,83.26
2022-12-23T10:16:22.889Z,83.13
2022-12-23T10:17:35.385Z,83.27
2022-12-23T10:19:07.067Z,82.96
2022-12-23T10:20:18.701Z,82.91
2022-12-23T10:21:29.262Z,83.22
2022-12-23T10:22:45.244Z,83.27
2022-12-23T10:23:51.256Z,83.81
2022-12-23T10:24:55.632Z,83.66
2022-12-23T10:25:57.094Z,83.36
2022-12-23T10:27:06.603Z,83.25
2022-12-23T10:28:10.734Z,83.62
2022-12-23T10:29:19.438Z,83.53
2022-12-23T10:32:03.794Z,83.48
2022-12-23T10:33:20.076Z,83.32
2022-12-23T10:34:36.594Z,84.14
2022-12-23T10:36:02.128Z,83.60
2022-12-23T10:37:42.384Z,83.54
2022-12-23T10:39:05.668Z,83.55
2022-12-23T10:40:17.406Z,83.53
2022-12-23T10:41:45.680Z,83.71
2022-12-23T10:43:25.081Z,83.67
2022-12-23T10:44:26.447Z,83.54
2022-12-23T10:46:21.401Z,83.59
2022-12-23T10:48:00.668Z,83.45
2022-12-23T10:49:18.376Z,82.99
2022-12-23T10:50:38.691Z,83.45
2022-12-23T10:51:46.362Z,83.44
2022-12-23T10:52:49.914Z,83.09
2022-12-23T10:53:56.556Z,83.14
2022-12-23T10:54:58.067Z,83.14
2022-12-23T10:56:00.223Z,83.21
2022-12-23T10:57:03.880Z,83.34
2022-12-23T10:58:12.832Z,83.30
2022-12-23T10:59:15.870Z,83.00
2022-12-23T11:00:21.554Z,82.99
2022-12-23T11:01:27.028Z,83.33
2022-12-23T11:02:44.004Z,83.72
2022-12-23T11:04:03.166Z,83.45
2022-12-23T11:05:13.582Z,83.42
2022-12-23T11:06:15.770Z,83.37
2022-12-23T11:07:44.004Z,83.35
2022-12-23T11:08:46.816Z,83.49
2022-12-23T11:09:53.188Z,83.74
2022-12-23T11:10:55.167Z,83.69
2022-12-23T11:12:04.245Z,83.55
2022-12-23T11:13:05.987Z,83.80
2022-12-23T11:14:35.616Z,83.55
2022-12-23T11:15:41.034Z,83.05
2022-12-23T11:16:47.297Z,84.17
2022-12-23T11:18:00.526Z,84.42
2022-12-23T11:19:13.805Z,84.28
2022-12-23T11:20:20.115Z,83.96
2022-12-23T11:21:21.652Z,83.71
2022-12-23T11:22:25.308Z,83.67
2022-12-23T11:23:29.805Z,83.66
2022-12-23T11:24:35.468Z,83.64
2022-12-23T11:25:42.404Z,83.94
2022-12-23T11:26:46.369Z,83.70
2022-12-23T11:27:47.906Z,83.69
2022-12-23T11:28:56.165Z,83.44
2022-12-23T11:29:57.648Z,83.46
2022-12-23T11:31:09.676Z,83.41
2022-12-23T11:32:19.251Z,83.45
2022-12-23T11:33:31.036Z,83.49
2022-12-23T11:34:37.900Z,83.51
2022-12-23T11:35:39.520Z,83.51
2022-12-23T11:36:41.459Z,83.55
2022-12-23T11:37:43.403Z,83.58
2022-12-23T11:39:02.864Z,84.07
2022-12-23T11:40:25.893Z,84.17
2022-12-23T11:41:29.846Z,83.80
2022-12-23T11:42:34.396Z,83.96
2022-12-23T11:43:39.382Z,83.66
2022-12-23T11:44:48.033Z,83.60
2022-12-23T11:46:15.913Z,83.74
2022-12-23T11:47:24.231Z,83.76
2022-12-23T11:48:30.283Z,83.96
2022-12-23T11:49:31.752Z,84.34
2022-12-23T11:50:39.266Z,84.34
2022-12-23T11:51:41.480Z,85.04
2022-12-23T11:52:51.136Z,84.46
2022-12-23T11:53:59.889Z,84.23
2022-12-23T11:55:03.744Z,84.38
2022-12-23T11:56:08.936Z,84.10
2022-12-23T11:57:19.268Z,84.00
2022-12-23T11:58:22.787Z,84.00
2022-12-23T11:59:30.279Z,83.97
2022-12-23T12:00:55.398Z,85.42
2022-12-23T12:02:05.303Z,85.35
2022-12-23T12:03:15.645Z,85.34
2022-12-23T12:04:22.634Z,85.26
2022-12-23T12:05:36.109Z,85.39
2022-12-23T12:06:49.632Z,85.09
2022-12-23T12:07:54.771Z,84.76
2022-12-23T12:08:59.077Z,84.74
2022-12-23T12:10:01.699Z,84.69
2022-12-23T12:11:13.808Z,84.54
2022-12-23T12:12:19.393Z,84.76
2022-12-23T12:13:35.775Z,85.07
2022-12-23T12:14:43.027Z,85.37
2022-12-23T12:16:02.321Z,84.97
2022-12-23T12:17:22.467Z,84.79
2022-12-23T12:18:26.712Z,84.25
2022-12-23T12:19:36.656Z,85.08
2022-12-23T12:20:45.217Z,84.83
2022-12-23T12:21:50.249Z,84.56
2022-12-23T12:22:57.760Z,84.08
2022-12-23T12:24:18.691Z,83.98
2022-12-23T12:25:26.093Z,84.25
2022-12-23T12:26:34.721Z,84.83
2022-12-23T12:27:39.441Z,85.21
2022-12-23T12:28:44.631Z,85.23
2022-12-23T12:29:55.734Z,85.19
2022-12-23T12:31:03.204Z,85.06
2022-12-23T12:32:14.427Z,84.60
2022-12-23T12:33:19.510Z,84.63
2022-12-23T12:34:39.235Z,84.89
2022-12-23T12:35:46.913Z,84.35
2022-12-23T12:37:01.868Z,84.08
2022-12-23T12:38:24.487Z,83.90
2022-12-23T12:39:43.063Z,84.25
2022-12-23T12:40:49.674Z,84.48
2022-12-23T12:42:01.638Z,84.43
2022-12-23T12:43:18.478Z,84.74
2022-12-23T12:44:28.978Z,84.44
2022-12-23T12:45:59.924Z,85.34
2022-12-23T12:47:44.555Z,85.81
2022-12-23T12:49:02.645Z,85.22
2022-12-23T12:50:21.877Z,85.68
2022-12-23T12:51:37.960Z,85.25
2022-12-23T12:52:42.963Z,84.81
2022-12-23T12:54:22.732Z,84.78
2022-12-23T12:55:32.798Z,84.82
2022-12-23T12:56:41.904Z,84.79
2022-12-23T12:57:43.255Z,84.64
2022-12-23T12:58:45.169Z,84.48
2022-12-23T12:59:50.432Z,84.46
2022-12-23T13:01:26.838Z,84.20
2022-12-23T13:03:05.894Z,85.35
2022-12-23T13:04:45.661Z,85.00
2022-12-23T13:06:05.150Z,84.75
2022-12-23T13:07:33.967Z,85.16
2022-12-23T13:09:03.685Z,85.15
2022-12-23T13:10:22.031Z,85.35
2022-12-23T13:11:50.896Z,84.81
2022-12-23T13:13:10.493Z,85.84
2022-12-23T13:14:33.911Z,85.94
2022-12-23T13:16:05.214Z,85.31
2022-12-23T13:17:24.372Z,86.14
2022-12-23T13:18:42.342Z,86.30
2022-12-23T13:20:02.104Z,85.75
2022-12-23T13:21:23.592Z,85.65
2022-12-23T13:22:32.225Z,85.63
2022-12-23T13:24:03.784Z,85.31
2022-12-23T13:25:17.707Z,85.57
2022-12-23T13:26:31.023Z,85.25
2022-12-23T13:27:48.344Z,85.37
2022-12-23T13:29:15.391Z,85.21
2022-12-23T13:30:20.030Z,84.68
2022-12-23T13:31:36.505Z,85.03
2022-12-23T13:33:02.198Z,85.14
2022-12-23T13:34:14.355Z,84.83
2022-12-23T13:35:37.337Z,84.42
2022-12-23T13:36:52.869Z,84.88
2022-12-23T13:38:06.280Z,84.75
2022-12-23T13:39:27.089Z,84.85
2022-12-23T13:40:56.467Z,84.69
2022-12-23T13:42:05.690Z,84.72
2022-12-23T13:43:20.628Z,85.07
2022-12-23T13:44:23.187Z,85.21
2022-12-23T13:45:32.805Z,84.82
2022-12-23T13:46:43.263Z,85.02
2022-12-23T13:48:05.450Z,84.78
2022-12-23T13:49:14.197Z,84.71
2022-12-23T13:50:42.112Z,84.36
2022-12-23T13:51:53.500Z,84.64
2022-12-23T13:53:07.116Z,84.85
2022-12-23T13:54:21.003Z,84.54
2022-12-23T13:55:51.509Z,84.70
2022-12-23T13:57:11.655Z,84.34
2022-12-23T13:58:22.365Z,84.60
2022-12-23T13:59:39.239Z,84.57
2022-12-23T14:00:41.083Z,84.48
2022-12-23T14:01:46.831Z,84.39
2022-12-23T14:03:01.957Z,84.79
2022-12-23T14:04:32.013Z,85.38
2022-12-23T14:05:45.291Z,85.54
2022-12-23T14:06:48.219Z,85.58
2022-12-23T14:07:50.615Z,86.04
2022-12-23T14:08:54.083Z,85.98
2022-12-23T14:09:58.507Z,85.51
2022-12-23T14:11:14.753Z,86.25
2022-12-23T14:12:42.831Z,86.09
2022-12-23T14:14:06.636Z,86.03
2022-12-23T14:15:23.444Z,86.46
2022-12-23T14:16:36.084Z,86.40
2022-12-23T14:17:52.340Z,86.37
2022-12-23T14:19:30.938Z,86.56
2022-12-23T14:20:41.232Z,87.43
2022-12-23T14:22:03.937Z,87.12
2022-12-23T14:23:27.026Z,87.36
2022-12-23T14:24:47.035Z,86.95
2022-12-23T14:26:13.743Z,87.43
2022-12-23T14:27:43.038Z,88.17
2022-12-23T14:29:15.376Z,87.47
2022-12-23T14:30:36.355Z,87.33
2022-12-23T14:31:44.095Z,87.70
2022-12-23T14:32:48.062Z,87.49
2022-12-23T14:33:49.626Z,87.04
2022-12-23T14:35:18.680Z,87.12
2022-12-23T14:36:25.675Z,88.02
2022-12-23T14:37:27.357Z,88.26
2022-12-23T14:38:31.516Z,89.00
2022-12-23T14:39:34.231Z,88.61